Terminal Aerodrome Forecast
Issued by NWS Huntsville, AL

Home | Current Version | Previous Version | Text Only | Print | Product List | Glossary On
Versions: 1 2 3 4 5 6 7 8 9 10 11 12 13 14 15 16 17 18 19 20 21 22 23 24 25 26 27 28 29 30 31 32 33 34 35 36 37 38 39
000
FTUS44 KHUN 261203 AAA
TAFMSL
TAF AMD
KMSL 261203Z 2612/2712 VRB03KT P6SM SCT250
      TEMPO 2612/2614 2SM BR
     FM261700 17005KT P6SM BKN250
     FM270100 13004KT P6SM SCT120 OVC200=

USA.gov is the U.S. government's official web portal to all federal, state and local government web resources and services.